Time;durP1;ratioP1;P1;durP2;ratioP2;P2;SDS_P1;SDS_P2;PMS_P1;PMS_P2;Temp;Humidity;BMP_temperature;BMP_pressure;BME280_temperature;BME280_humidity;BME280_pressure;Samples;Min_cycle;Max_cycle;Signal;HPM_P1;HPM_P2
2022/08/12 00:43:43;;;;;;;7.57;5.20;;;23.70;99.90;;;;;;5052747;28;20032;-70
2022/08/12 00:48:55;;;;;;;5.90;4.97;;;23.70;99.90;;;;;;5052110;28;20083;-71
2022/08/12 00:51:22;;;;;;;7.70;5.43;;;23.70;99.90;;;;;;5052315;28;20051;-71
2022/08/12 00:53:48;;;;;;;6.15;5.40;;;23.70;99.90;;;;;;5052130;28;20101;-71
2022/08/12 00:56:15;;;;;;;7.90;5.65;;;23.70;99.90;;;;;;5052016;28;20033;-71
2022/08/12 00:58:45;;;;;;;;;;;23.70;99.90;;;;;;5052668;28;20021;-71
2022/08/12 01:01:13;;;;;;;7.07;5.82;;;23.80;99.90;;;;;;5051928;28;19909;-70
2022/08/12 01:12:16;;;;;;;7.13;5.30;;;23.80;99.90;;;;;;5029384;28;20038;-71
2022/08/12 01:14:43;;;;;;;6.65;5.38;;;23.80;99.90;;;;;;5047081;28;20033;-71
2022/08/12 01:17:09;;;;;;;7.85;5.68;;;23.70;99.90;;;;;;5051883;28;20123;-71
2022/08/12 01:19:35;;;;;;;6.90;5.50;;;23.70;99.90;;;;;;5051635;28;20032;-71
2022/08/12 01:22:36;;;;;;;8.23;5.70;;;23.70;99.90;;;;;;5051528;28;20150;-71
2022/08/12 01:25:11;;;;;;;7.13;5.38;;;23.60;99.90;;;;;;5051638;28;20060;-71
2022/08/12 01:27:39;;;;;;;7.35;5.57;;;23.60;99.90;;;;;;5049675;28;20045;-71
2022/08/12 01:30:08;;;;;;;8.98;5.72;;;23.70;99.90;;;;;;5051302;28;20041;-70
2022/08/12 01:32:36;;;;;;;6.75;5.82;;;23.70;99.90;;;;;;5051734;28;20123;-70
2022/08/12 01:35:15;;;;;;;7.32;5.90;;;23.70;99.90;;;;;;5049847;28;20374;-70
2022/08/12 01:37:58;;;;;;;7.38;5.90;;;23.70;99.90;;;;;;5051419;28;20020;-70
2022/08/12 01:40:30;;;;;;;7.03;5.80;;;23.70;99.90;;;;;;5051381;28;20036;-70
2022/08/12 01:43:12;;;;;;;6.40;5.80;;;23.70;99.90;;;;;;5051350;28;20537;-71
2022/08/12 01:45:58;;;;;;;7.20;5.90;;;23.60;99.90;;;;;;5051114;28;20021;-70
2022/08/12 01:48:48;;;;;;;7.45;6.00;;;23.60;99.90;;;;;;5051064;28;20048;-70
2022/08/12 01:51:39;;;;;;;8.77;6.15;;;23.60;99.90;;;;;;5051337;28;20013;-70
2022/08/12 01:54:12;;;;;;;7.72;6.10;;;23.60;99.90;;;;;;5051274;28;20021;-70
2022/08/12 01:56:42;;;;;;;8.15;6.30;;;23.60;99.90;;;;;;5051152;28;20120;-71
2022/08/12 02:01:58;;;;;;;8.70;6.63;;;23.30;99.90;;;;;;5051151;28;20503;-70
2022/08/12 02:11:28;;;;;;;7.55;6.30;;;23.30;99.90;;;;;;5050394;28;20436;-71
2022/08/12 02:14:22;;;;;;;8.77;6.57;;;23.30;99.90;;;;;;5050713;28;20434;-70
2022/08/12 02:17:12;;;;;;;8.95;6.32;;;23.30;99.90;;;;;;5050904;28;20021;-70
2022/08/12 02:20:20;;;;;;;9.32;6.43;;;23.30;99.90;;;;;;5050649;28;20462;-72
2022/08/12 02:22:50;;;;;;;7.28;6.55;;;23.30;99.90;;;;;;5050556;28;20037;-72
2022/08/12 02:25:23;;;;;;;7.22;6.30;;;23.30;99.90;;;;;;5050499;28;20032;-71
2022/08/12 02:27:51;;;;;;;7.32;6.03;;;23.30;99.90;;;;;;5050691;28;20048;-71
2022/08/12 02:30:30;;;;;;;11.25;6.00;;;23.30;99.90;;;;;;5050319;28;20100;-71
2022/08/12 02:32:59;;;;;;;8.55;6.45;;;23.30;99.90;;;;;;5050244;28;20104;-71
2022/08/12 02:35:28;;;;;;;7.00;6.20;;;23.30;99.90;;;;;;5050189;28;20092;-71
2022/08/12 02:37:58;;;;;;;8.35;6.25;;;23.30;99.90;;;;;;5050366;28;20116;-71
2022/08/12 02:40:26;;;;;;;6.30;5.35;;;23.40;99.90;;;;;;5050398;28;20025;-71
2022/08/12 02:42:59;;;;;;;7.53;5.40;;;23.40;99.90;;;;;;5050341;28;20078;-71
2022/08/12 02:45:37;;;;;;;7.55;5.28;;;23.50;99.90;;;;;;5050116;28;20025;-71
2022/08/12 02:48:07;;;;;;;6.10;5.20;;;23.50;99.90;;;;;;5050516;28;20043;-71
2022/08/12 02:50:38;;;;;;;6.50;5.75;;;23.70;99.90;;;;;;5050157;28;20053;-71
2022/08/12 02:53:06;;;;;;;7.85;6.55;;;23.80;99.90;;;;;;5049685;28;20131;-71
2022/08/12 02:55:35;;;;;;;7.70;6.35;;;23.90;99.90;;;;;;5050724;28;20056;-71
2022/08/12 02:58:08;;;;;;;6.78;5.95;;;23.70;99.90;;;;;;5050657;28;20478;-71
2022/08/12 03:00:36;;;;;;;7.07;5.75;;;23.60;99.90;;;;;;5050755;28;20075;-71
2022/08/12 03:03:07;;;;;;;7.10;6.40;;;23.50;99.90;;;;;;5050949;28;20035;-71
2022/08/12 03:05:37;;;;;;;7.47;6.55;;;23.60;99.90;;;;;;5049155;28;20033;-71
2022/08/12 03:08:08;;;;;;;8.95;6.63;;;23.60;99.90;;;;;;5050631;28;20046;-71
2022/08/12 03:10:41;;;;;;;7.70;6.03;;;23.60;99.90;;;;;;5050795;28;20033;-71
2022/08/12 03:13:08;;;;;;;9.38;6.60;;;23.50;99.90;;;;;;5050981;28;20029;-71
2022/08/12 03:15:35;;;;;;;8.20;6.32;;;23.40;99.90;;;;;;5049009;28;20381;-71
2022/08/12 03:18:19;;;;;;;6.88;6.18;;;23.40;99.90;;;;;;5048819;28;20033;-71
2022/08/12 03:20:46;;;;;;;8.57;6.82;;;23.40;99.90;;;;;;5048931;28;20415;-71
2022/08/12 03:23:19;;;;;;;7.97;6.82;;;23.40;99.90;;;;;;5051690;28;20037;-71
2022/08/12 03:25:49;;;;;;;7.82;6.65;;;23.40;99.90;;;;;;5051234;28;20093;-71
2022/08/12 03:28:49;;;;;;;8.43;6.68;;;23.40;99.90;;;;;;5051448;28;20109;-72
2022/08/12 03:31:04;;;;;;;8.55;7.00;;;23.30;99.90;;;;;;5051083;28;20203;-71
2022/08/12 03:33:36;;;;;;;8.57;7.03;;;23.30;99.90;;;;;;5054583;28;20032;-71
2022/08/12 03:36:08;;;;;;;10.20;6.90;;;23.20;99.90;;;;;;5053549;28;20428;-71
2022/08/12 03:38:39;;;;;;;8.73;7.25;;;23.20;99.90;;;;;;5054964;28;20028;-71
2022/08/12 04:00:46;;;;;;;10.38;8.85;;;22.70;99.90;;;;;;5055321;28;20040;-71
2022/08/12 04:06:27;;;;;;;9.40;7.60;;;22.60;99.90;;;;;;5052024;28;19919;-71
2022/08/12 04:08:56;;;;;;;;;;;22.50;99.90;;;;;;5052730;28;20425;-71
2022/08/12 04:14:19;;;;;;;11.13;7.10;;;22.30;99.90;;;;;;5051695;28;20116;-71
2022/08/12 04:16:49;;;;;;;11.35;6.70;;;22.30;99.90;;;;;;5051925;28;20064;-71
2022/08/12 04:19:17;;;;;;;13.05;6.95;;;22.30;99.90;;;;;;5052378;28;20040;-71
2022/08/12 04:21:43;;;;;;;12.15;5.07;;;22.30;99.90;;;;;;5052247;28;20114;-71
2022/08/12 04:24:10;;;;;;;15.15;4.22;;;22.30;99.90;;;;;;5052477;28;20029;-71
2022/08/12 04:26:38;;;;;;;7.70;3.50;;;22.30;99.90;;;;;;5052215;28;20088;-71
2022/08/12 04:29:05;;;;;;;5.97;2.72;;;22.30;99.90;;;;;;5052039;28;20436;-71
2022/08/12 04:31:39;;;;;;;4.60;2.75;;;22.30;99.90;;;;;;5052166;28;20037;-71
2022/08/12 04:34:09;;;;;;;4.80;2.58;;;22.30;99.90;;;;;;5052382;28;20473;-71
2022/08/12 04:36:38;;;;;;;3.42;2.10;;;22.30;99.90;;;;;;5053393;28;20098;-71
2022/08/12 04:39:06;;;;;;;5.57;2.40;;;22.30;99.90;;;;;;5055012;28;20515;-71
2022/08/12 04:41:34;;;;;;;4.78;2.15;;;22.30;99.90;;;;;;5054957;28;20040;-71
2022/08/12 04:44:00;;;;;;;5.18;2.25;;;22.30;99.90;;;;;;5054364;28;20079;-71
2022/08/12 04:46:26;;;;;;;5.63;2.25;;;22.20;99.90;;;;;;5054545;28;20099;-71
2022/08/12 04:48:53;;;;;;;6.40;2.13;;;22.20;99.90;;;;;;5054805;28;20592;-71
2022/08/12 04:51:21;;;;;;;7.82;2.13;;;22.30;99.90;;;;;;5054663;28;20032;-71
2022/08/12 04:53:47;;;;;;;4.20;2.22;;;22.30;99.90;;;;;;5054483;28;20112;-71
2022/08/12 04:56:13;;;;;;;;;;;22.40;99.90;;;;;;5055260;28;20461;-71
2022/08/12 04:58:40;;;;;;;5.38;2.13;;;22.50;99.90;;;;;;5054310;28;19905;-71
2022/08/12 05:01:06;;;;;;;;;;;22.50;99.90;;;;;;5054975;28;20033;-71
2022/08/12 05:03:42;;;;;;;6.15;2.40;;;22.50;99.90;;;;;;5054281;28;19911;-73
2022/08/12 05:06:08;;;;;;;3.67;2.17;;;22.40;99.90;;;;;;5054738;28;20060;-70
2022/08/12 05:08:35;;;;;;;5.65;2.03;;;22.30;99.90;;;;;;5054021;28;20489;-71
2022/08/12 05:11:02;;;;;;;3.28;2.10;;;22.30;99.90;;;;;;5052867;28;20115;-71
2022/08/12 05:13:36;;;;;;;3.97;2.22;;;22.40;99.90;;;;;;5052521;28;20025;-71
2022/08/12 05:16:06;;;;;;;5.07;2.30;;;22.40;99.90;;;;;;5053848;28;20072;-71
2022/08/12 05:18:38;;;;;;;3.42;2.30;;;22.60;99.90;;;;;;5053888;28;20053;-71
2022/08/12 05:21:09;;;;;;;4.50;2.50;;;22.50;99.90;;;;;;5053254;28;20516;-71
2022/08/12 05:23:39;;;;;;;4.95;2.35;;;22.60;99.90;;;;;;5053194;28;20426;-71
2022/08/12 05:26:05;;;;;;;6.43;2.40;;;22.50;99.90;;;;;;5052847;28;20102;-71
2022/08/12 05:28:32;;;;;;;5.15;2.65;;;22.60;99.90;;;;;;5051760;28;20127;-71
2022/08/12 05:31:01;;;;;;;10.60;2.85;;;22.60;99.90;;;;;;5053338;28;20104;-71
2022/08/12 05:33:39;;;;;;;4.55;2.70;;;22.70;99.90;;;;;;5053855;28;20021;-71
2022/08/12 05:36:08;;;;;;;3.65;2.72;;;22.70;99.90;;;;;;5053799;28;20033;-71
2022/08/12 05:41:20;;;;;;;5.93;2.92;;;22.90;99.90;;;;;;5053325;28;20444;-71
2022/08/12 05:43:47;;;;;;;5.00;2.67;;;23.00;99.90;;;;;;5051749;28;20381;-71
2022/08/12 05:46:14;;;;;;;6.00;2.72;;;23.20;99.90;;;;;;5053064;28;20073;-71
2022/08/12 05:48:41;;;;;;;7.82;2.88;;;23.30;99.90;;;;;;5053304;28;20077;-71
2022/08/12 05:51:10;;;;;;;6.75;3.13;;;23.40;99.90;;;;;;5051923;28;20029;-71
2022/08/12 05:53:40;;;;;;;4.75;3.00;;;23.50;99.90;;;;;;5053228;28;20425;-71
2022/08/12 05:56:18;;;;;;;4.72;2.88;;;23.50;99.90;;;;;;5051936;28;20033;-72
2022/08/12 05:58:45;;;;;;;6.78;3.30;;;23.70;99.90;;;;;;5052975;28;20116;-72
2022/08/12 06:01:11;;;;;;;8.30;3.25;;;24.20;99.90;;;;;;5052984;28;20029;-72
2022/08/12 06:03:37;;;;;;;5.25;3.00;;;24.80;99.90;;;;;;5052779;28;20025;-72
2022/08/12 06:06:05;;;;;;;4.15;2.30;;;25.30;99.90;;;;;;5052434;28;20035;-72
2022/08/12 06:08:34;;;;;;;4.40;2.50;;;25.40;99.90;;;;;;5052795;28;20459;-71
2022/08/12 06:11:04;;;;;;;3.33;2.30;;;25.70;99.90;;;;;;5052689;28;20053;-72
2022/08/12 06:13:35;;;;;;;3.50;2.50;;;25.80;99.90;;;;;;5052634;28;20028;-71
2022/08/12 06:16:01;;;;;;;4.18;2.38;;;26.00;99.90;;;;;;5053154;28;20373;-71
2022/08/12 06:18:29;;;;;;;3.33;2.10;;;26.20;99.90;;;;;;5052325;28;20025;-71
2022/08/12 06:20:58;;;;;;;3.63;2.08;;;26.90;99.90;;;;;;5053297;28;20024;-71
2022/08/12 06:23:27;;;;;;;5.05;2.10;;;26.80;99.90;;;;;;5052578;28;20487;-71
2022/08/12 06:25:57;;;;;;;4.88;1.90;;;26.70;99.90;;;;;;5052520;28;20149;-71
2022/08/12 06:28:23;;;;;;;7.70;2.17;;;26.60;99.90;;;;;;5052520;28;20421;-71
2022/08/12 06:30:51;;;;;;;5.68;2.00;;;26.50;99.90;;;;;;5052493;28;20031;-71
2022/08/12 06:33:24;;;;;;;2.80;1.95;;;26.40;99.90;;;;;;5052257;28;20036;-71
2022/08/12 06:35:52;;;;;;;3.35;1.90;;;26.30;99.90;;;;;;5052744;28;20025;-71
2022/08/12 06:38:26;;;;;;;4.00;1.90;;;26.20;99.90;;;;;;5052913;28;20075;-71
2022/08/12 06:43:40;;;;;;;2.72;1.70;;;26.50;99.90;;;;;;5053360;28;20132;-71
2022/08/12 06:46:07;;;;;;;4.50;1.58;;;26.90;99.90;;;;;;5053059;28;20064;-71
2022/08/12 06:48:33;;;;;;;5.82;1.90;;;26.90;99.90;;;;;;5052526;28;20017;-70
2022/08/12 06:51:02;;;;;;;4.65;1.80;;;26.70;99.90;;;;;;5052618;28;20041;-71
2022/08/12 06:53:28;;;;;;;4.43;1.77;;;26.70;99.90;;;;;;5053146;28;20025;-71
2022/08/12 06:55:56;;;;;;;2.70;1.50;;;26.80;99.90;;;;;;5052625;28;20078;-71
2022/08/12 06:58:23;;;;;;;7.32;1.80;;;27.00;99.90;;;;;;5052617;28;20029;-71
2022/08/12 07:00:50;;;;;;;2.35;1.50;;;26.90;99.90;;;;;;5052686;28;20068;-71
2022/08/12 07:03:28;;;;;;;;;;;27.00;99.90;;;;;;5053020;28;20075;-71
2022/08/12 07:06:03;;;;;;;2.50;1.35;;;27.00;99.90;;;;;;5052745;28;20007;-72
2022/08/12 07:08:31;;;;;;;3.03;1.45;;;26.90;99.90;;;;;;5056376;28;20029;-71
2022/08/12 07:11:00;;;;;;;5.15;1.90;;;26.80;99.90;;;;;;5056521;28;20025;-71
2022/08/12 07:13:34;;;;;;;3.40;1.55;;;27.00;99.90;;;;;;5056556;28;20029;-71
2022/08/12 07:16:01;;;;;;;4.40;1.80;;;27.20;99.90;;;;;;5056260;28;20082;-72
2022/08/12 07:18:34;;;;;;;4.47;1.60;;;27.40;99.90;;;;;;5056311;28;20033;-71
2022/08/12 07:21:04;;;;;;;3.13;1.60;;;27.60;99.90;;;;;;5056720;28;20056;-71
2022/08/12 07:23:33;;;;;;;4.93;1.40;;;27.80;99.90;;;;;;5056872;28;20017;-71
2022/08/12 07:26:01;;;;;;;3.70;1.50;;;28.30;99.90;;;;;;5056522;28;20083;-71
2022/08/12 07:28:30;;;;;;;2.63;1.40;;;28.90;99.90;;;;;;5056794;28;20079;-71
2022/08/12 07:30:57;;;;;;;3.83;1.50;;;29.30;98.80;;;;;;5055838;28;20078;-72
2022/08/12 07:33:29;;;;;;;5.28;1.30;;;29.50;98.30;;;;;;5055761;28;20024;-71
2022/08/12 07:35:58;;;;;;;4.78;1.50;;;29.80;98.20;;;;;;5055071;28;20045;-71
2022/08/12 07:38:33;;;;;;;4.47;1.40;;;29.70;97.70;;;;;;5055563;28;20025;-71
2022/08/12 07:41:02;;;;;;;5.40;1.50;;;29.70;97.00;;;;;;5055525;28;20028;-72
2022/08/12 07:43:29;;;;;;;3.95;1.50;;;29.60;97.00;;;;;;5055207;28;20029;-71
2022/08/12 07:45:56;;;;;;;3.35;1.35;;;29.50;96.70;;;;;;5055432;28;20044;-71
2022/08/12 07:48:23;;;;;;;2.75;1.40;;;29.30;96.30;;;;;;5055305;28;20047;-72
2022/08/12 07:50:50;;;;;;;2.95;1.20;;;29.20;97.10;;;;;;5055163;28;20025;-71
2022/08/12 07:53:16;;;;;;;5.38;1.40;;;28.70;96.80;;;;;;5055426;28;20032;-71
2022/08/12 07:55:42;;;;;;;;;;;28.30;97.90;;;;;;5055575;28;20434;-72
2022/08/12 07:58:09;;;;;;;2.35;1.30;;;28.40;97.90;;;;;;5055064;28;20349;-71
2022/08/12 08:00:39;;;;;;;3.28;1.48;;;28.30;97.90;;;;;;5054774;28;20104;-71
2022/08/12 08:03:07;;;;;;;4.65;1.42;;;28.60;97.50;;;;;;5054710;28;20081;-71
2022/08/12 08:05:38;;;;;;;4.10;1.30;;;28.90;97.50;;;;;;5054122;28;20094;-72
2022/08/12 08:08:16;;;;;;;6.15;1.20;;;29.20;96.70;;;;;;5054408;28;20029;-71
2022/08/12 08:10:43;;;;;;;6.40;1.42;;;29.60;95.80;;;;;;5054241;28;20025;-71
2022/08/12 08:13:11;;;;;;;4.00;1.30;;;30.00;94.90;;;;;;5053650;28;20175;-71
2022/08/12 08:15:38;;;;;;;3.13;1.50;;;30.60;93.80;;;;;;5053917;28;20104;-71
2022/08/12 08:18:08;;;;;;;4.18;1.60;;;31.10;92.60;;;;;;5053523;28;20422;-71
2022/08/12 08:20:40;;;;;;;4.93;1.40;;;31.20;92.60;;;;;;5053768;28;20017;-71
2022/08/12 08:23:09;;;;;;;2.47;1.20;;;31.40;92.40;;;;;;5054646;28;20074;-71
2022/08/12 08:25:37;;;;;;;2.70;1.33;;;31.40;91.40;;;;;;5053745;28;20413;-71
2022/08/12 08:28:16;;;;;;;7.45;1.85;;;31.50;91.80;;;;;;5054558;28;20029;-71
2022/08/12 08:30:45;;;;;;;4.35;1.30;;;32.10;91.40;;;;;;5054358;28;20032;-71
2022/08/12 08:33:14;;;;;;;4.03;1.70;;;32.50;90.90;;;;;;5053933;28;20049;-71
2022/08/12 08:35:44;;;;;;;4.35;1.40;;;32.60;90.90;;;;;;5054166;28;20021;-72
2022/08/12 08:38:16;;;;;;;3.28;1.80;;;32.70;90.80;;;;;;5054057;28;20124;-71
2022/08/12 08:43:31;;;;;;;3.10;1.83;;;33.30;90.10;;;;;;5054397;28;20048;-71
2022/08/12 08:45:59;;;;;;;6.32;1.90;;;33.60;89.90;;;;;;5053689;28;20029;-71
2022/08/12 08:48:25;;;;;;;5.53;2.63;;;33.80;88.80;;;;;;5054028;28;20472;-71
2022/08/12 08:50:51;;;;;;;;;;;33.60;88.50;;;;;;5054292;28;20366;-71
2022/08/12 08:53:18;;;;;;;5.03;2.70;;;33.30;88.40;;;;;;5053595;28;19911;-71
2022/08/12 08:55:44;;;;;;;9.20;3.00;;;33.50;88.00;;;;;;5053683;28;20339;-71
2022/08/12 08:58:10;;;;;;;;;;;33.80;87.60;;;;;;5053527;28;20469;-72
2022/08/12 09:00:39;;;;;;;5.10;2.58;;;33.90;86.20;;;;;;5053348;28;19912;-71
2022/08/12 09:03:06;;;;;;;4.88;2.60;;;33.90;87.50;;;;;;5053489;28;20072;-71
2022/08/12 09:05:35;;;;;;;4.60;2.50;;;33.90;90.30;;;;;;5053269;28;20032;-71
2022/08/12 09:08:03;;;;;;;12.45;2.90;;;33.70;91.20;;;;;;5053911;28;20079;-71
2022/08/12 09:10:37;;;;;;;7.40;2.70;;;33.40;92.20;;;;;;5052161;28;20063;-71
2022/08/12 09:15:48;;;;;;;6.35;3.20;;;33.10;92.20;;;;;;5053671;28;20032;-71
2022/08/12 09:18:17;;;;;;;4.53;3.28;;;33.30;92.40;;;;;;5053473;28;20028;-71
2022/08/12 09:20:44;;;;;;;7.85;3.22;;;33.30;92.40;;;;;;5053012;28;20017;-71
2022/08/12 09:23:11;;;;;;;7.05;3.80;;;33.20;93.00;;;;;;5053090;28;20086;-72
2022/08/12 09:25:40;;;;;;;8.20;3.67;;;33.00;93.40;;;;;;5053032;28;20032;-71
2022/08/12 09:28:09;;;;;;;6.75;3.35;;;32.40;94.00;;;;;;5053214;28;20428;-71
2022/08/12 09:30:43;;;;;;;7.60;3.53;;;32.40;94.30;;;;;;5052818;28;20025;-71
2022/08/12 09:33:12;;;;;;;7.47;4.05;;;32.40;94.80;;;;;;5052878;28;20039;-71
2022/08/12 09:35:40;;;;;;;6.00;3.65;;;32.40;95.00;;;;;;5053451;28;20163;-71
2022/08/12 09:38:06;;;;;;;8.63;3.90;;;32.30;94.90;;;;;;5052573;28;20029;-71
2022/08/12 09:40:33;;;;;;;4.13;3.40;;;32.40;94.60;;;;;;5053046;28;20040;-71
2022/08/12 09:45:47;;;;;;;5.77;3.13;;;32.10;95.00;;;;;;5052376;28;20060;-71
2022/08/12 09:48:18;;;;;;;5.43;3.40;;;32.00;95.20;;;;;;5052558;28;20128;-70
2022/08/12 09:50:50;;;;;;;6.68;3.50;;;32.10;95.10;;;;;;5052507;28;20094;-71
2022/08/12 09:53:24;;;;;;;6.43;3.00;;;32.10;95.00;;;;;;5052189;28;20051;-71
2022/08/12 09:55:55;;;;;;;9.57;3.33;;;32.20;94.90;;;;;;5052021;28;20024;-71
2022/08/12 09:58:28;;;;;;;4.28;2.90;;;32.00;94.70;;;;;;5051587;28;20063;-72
2022/08/12 10:01:03;;;;;;;5.55;2.75;;;31.90;95.10;;;;;;5050220;28;20025;-71
2022/08/12 10:03:35;;;;;;;10.50;2.75;;;31.90;94.80;;;;;;5051813;28;20028;-71
2022/08/12 10:06:05;;;;;;;7.45;2.78;;;31.90;94.70;;;;;;5052166;28;20051;-71
2022/08/12 10:08:33;;;;;;;6.78;2.60;;;31.90;94.90;;;;;;5052469;28;20057;-70
2022/08/12 10:13:47;;;;;;;7.10;2.90;;;32.00;95.20;;;;;;5052382;28;20163;-72
2022/08/12 10:16:22;;;;;;;4.85;2.83;;;31.90;95.50;;;;;;5052264;28;20453;-70
2022/08/12 10:19:00;;;;;;;7.00;2.83;;;31.70;96.00;;;;;;5053068;28;20127;-72
2022/08/12 10:21:35;;;;;;;6.18;2.83;;;31.70;96.10;;;;;;5053474;28;20025;-72
2022/08/12 10:24:03;;;;;;;5.03;3.00;;;31.70;95.50;;;;;;5053435;28;20021;-73
2022/08/12 10:32:02;;;;;;;6.93;2.55;;;32.10;93.30;;;;;;5053559;28;20051;-72
2022/08/12 10:34:29;;;;;;;5.72;2.45;;;32.20;93.50;;;;;;5052631;28;20157;-72
2022/08/12 10:36:58;;;;;;;9.45;2.38;;;32.30;93.90;;;;;;5052553;28;20032;-72
2022/08/12 10:39:34;;;;;;;3.63;2.45;;;32.40;93.90;;;;;;5052955;28;20162;-72
2022/08/12 10:44:50;;;;;;;4.75;2.30;;;32.70;92.40;;;;;;5052717;28;20124;-72
2022/08/12 10:47:18;;;;;;;6.25;2.25;;;32.80;92.20;;;;;;5052395;28;20453;-72
2022/08/12 10:49:45;;;;;;;8.75;2.78;;;32.90;92.00;;;;;;5052909;28;20461;-72
2022/08/12 10:52:11;;;;;;;6.88;2.65;;;32.90;91.70;;;;;;5051763;28;20520;-77
2022/08/12 10:54:39;;;;;;;4.38;2.40;;;32.40;92.30;;;;;;5052174;28;20021;-70
2022/08/12 10:57:05;;;;;;;7.60;2.63;;;32.50;92.60;;;;;;5052255;28;20031;-72
2022/08/12 10:59:31;;;;;;;;;;;32.60;92.60;;;;;;5052466;28;20017;-70
2022/08/12 11:01:58;;;;;;;5.18;2.40;;;32.50;92.20;;;;;;5052921;28;20253;-71
2022/08/12 11:04:27;;;;;;;3.88;1.90;;;32.70;92.30;;;;;;5052810;28;20467;-72
2022/08/12 11:06:55;;;;;;;6.10;2.15;;;32.70;92.60;;;;;;5052162;28;20460;-72
2022/08/12 11:09:30;;;;;;;5.03;2.33;;;32.80;92.80;;;;;;5052034;28;20082;-71
2022/08/12 11:12:04;;;;;;;3.90;2.30;;;32.90;93.30;;;;;;5052356;28;20029;-72
2022/08/12 11:14:31;;;;;;;4.53;2.40;;;32.80;93.70;;;;;;5052358;28;20021;-71
2022/08/12 11:17:01;;;;;;;4.25;2.63;;;32.70;93.80;;;;;;5052013;28;20504;-71
2022/08/12 11:19:29;;;;;;;6.13;2.38;;;32.60;94.40;;;;;;5052428;28;20025;-71
2022/08/12 11:21:55;;;;;;;8.00;2.80;;;32.70;94.50;;;;;;5052249;28;20094;-71
2022/08/12 11:24:23;;;;;;;5.90;2.47;;;32.70;94.90;;;;;;5052514;28;20025;-71
2022/08/12 11:26:50;;;;;;;6.88;2.47;;;32.90;94.60;;;;;;5052068;28;20046;-72
2022/08/12 11:29:21;;;;;;;5.60;2.80;;;33.00;94.30;;;;;;5052497;28;20036;-71
2022/08/12 11:31:48;;;;;;;8.95;2.90;;;33.10;94.60;;;;;;5052381;28;20450;-71
2022/08/12 11:34:15;;;;;;;8.10;3.28;;;33.20;95.10;;;;;;5052137;28;20092;-70
2022/08/12 11:36:50;;;;;;;11.60;2.70;;;33.30;95.10;;;;;;5052132;28;20135;-71
2022/08/12 11:39:17;;;;;;;7.07;2.77;;;33.20;95.70;;;;;;5052133;28;20025;-71
2022/08/12 11:41:43;;;;;;;6.38;2.40;;;33.40;95.90;;;;;;5050870;28;20663;-71
2022/08/12 11:44:09;;;;;;;;;;;33.10;96.00;;;;;;5052395;28;20536;-71
2022/08/12 11:46:36;;;;;;;10.25;2.70;;;33.00;95.70;;;;;;5051902;28;19913;-71
2022/08/12 11:49:02;;;;;;;9.02;2.67;;;33.00;95.30;;;;;;5051696;28;20028;-71
2022/08/12 11:51:29;;;;;;;5.63;2.50;;;33.00;95.60;;;;;;5051982;28;20036;-71
2022/08/12 11:53:55;;;;;;;8.30;2.63;;;33.10;96.00;;;;;;5052364;28;20120;-71
2022/08/12 11:56:21;;;;;;;;;;;33.20;95.90;;;;;;5055427;28;20022;-71
2022/08/12 11:58:47;;;;;;;6.18;2.83;;;33.30;95.80;;;;;;5053763;28;19904;-71
2022/08/12 12:01:14;;;;;;;7.80;2.67;;;33.30;96.20;;;;;;5055176;28;20104;-71
2022/08/12 12:03:40;;;;;;;9.65;2.85;;;33.40;96.20;;;;;;5055456;28;20032;-71
2022/08/12 12:06:06;;;;;;;6.97;2.53;;;33.40;96.70;;;;;;5054934;28;20079;-71
2022/08/12 12:08:32;;;;;;;;;;;33.40;97.10;;;;;;5055700;28;20033;-71
2022/08/12 12:10:58;;;;;;;7.78;2.28;;;33.50;96.90;;;;;;5054875;28;19912;-71
2022/08/12 12:13:24;;;;;;;5.93;2.30;;;33.60;96.50;;;;;;5055073;28;20105;-71
2022/08/12 12:15:50;;;;;;;;;;;33.30;95.40;;;;;;5055702;28;20107;-72
2022/08/12 12:18:26;;;;;;;7.72;2.50;;;33.40;95.40;;;;;;5055001;28;19940;-72
2022/08/12 12:20:55;;;;;;;7.03;2.60;;;33.40;96.40;;;;;;5054951;28;20021;-71
2022/08/12 12:23:21;;;;;;;4.50;2.30;;;33.40;97.30;;;;;;5054863;28;20032;-71
2022/08/12 12:25:47;;;;;;;7.80;2.50;;;33.50;97.40;;;;;;5054841;28;20052;-71
2022/08/12 12:28:13;;;;;;;;;;;33.50;96.40;;;;;;5055410;28;20531;-71
2022/08/12 12:30:40;;;;;;;8.15;2.40;;;33.30;96.00;;;;;;5054792;28;19904;-71
2022/08/12 12:33:09;;;;;;;8.65;2.42;;;33.10;96.50;;;;;;5055243;28;20486;-72
2022/08/12 12:35:36;;;;;;;6.45;2.33;;;32.80;96.90;;;;;;5053475;28;20052;-71
2022/08/12 12:38:05;;;;;;;7.15;2.38;;;32.90;97.00;;;;;;5054797;28;20086;-71
2022/08/12 12:40:32;;;;;;;4.25;2.25;;;32.80;96.90;;;;;;5053378;28;20017;-72
2022/08/12 12:42:59;;;;;;;4.45;2.28;;;32.70;96.80;;;;;;5055006;28;20465;-71
2022/08/12 12:45:26;;;;;;;6.97;2.17;;;32.70;96.90;;;;;;5052931;28;20385;-71
2022/08/12 12:47:56;;;;;;;7.03;1.95;;;32.80;96.70;;;;;;5053251;28;20040;-71
2022/08/12 12:50:23;;;;;;;6.55;2.65;;;32.80;96.60;;;;;;5054513;28;20021;-72
2022/08/12 12:52:50;;;;;;;6.40;2.00;;;32.50;96.80;;;;;;5054042;28;20033;-71
2022/08/12 12:55:17;;;;;;;10.07;2.20;;;32.50;96.30;;;;;;5053536;28;20021;-71
2022/08/12 12:57:44;;;;;;;6.80;2.05;;;32.60;95.90;;;;;;5053959;28;20469;-72
2022/08/12 13:00:14;;;;;;;8.15;2.03;;;32.70;96.20;;;;;;5053487;28;20473;-71
2022/08/12 13:02:51;;;;;;;6.45;2.20;;;32.70;95.90;;;;;;5053478;28;20032;-71
2022/08/12 13:05:28;;;;;;;7.97;2.10;;;32.70;95.80;;;;;;5051563;28;20390;-72
2022/08/12 13:07:57;;;;;;;7.18;2.20;;;32.70;96.50;;;;;;5053825;28;20037;-71
2022/08/12 13:10:24;;;;;;;10.73;2.20;;;32.60;96.70;;;;;;5053439;28;20028;-71
2022/08/12 13:12:51;;;;;;;6.57;2.40;;;32.50;96.90;;;;;;5053675;28;20025;-71
2022/08/12 13:15:17;;;;;;;5.47;2.13;;;32.30;96.80;;;;;;5053211;28;20094;-71
2022/08/12 13:17:54;;;;;;;10.02;2.17;;;32.40;96.30;;;;;;5053683;28;20021;-71
2022/08/12 13:20:22;;;;;;;7.55;2.20;;;32.40;95.40;;;;;;5053672;28;20377;-71
2022/08/12 13:22:48;;;;;;;4.38;1.98;;;32.30;94.60;;;;;;5054093;28;20017;-71
2022/08/12 13:25:18;;;;;;;6.80;2.65;;;31.90;94.80;;;;;;5053785;28;20035;-71
2022/08/12 13:27:49;;;;;;;5.75;2.05;;;31.80;95.40;;;;;;5053376;28;20397;-71
2022/08/12 13:30:24;;;;;;;5.75;2.20;;;31.60;96.00;;;;;;5052135;28;20059;-71
2022/08/12 13:33:01;;;;;;;8.80;2.28;;;31.70;96.60;;;;;;5053772;28;20028;-71
2022/08/12 13:35:32;;;;;;;8.68;2.33;;;31.40;96.70;;;;;;5052529;28;20021;-71
2022/08/12 13:37:58;;;;;;;7.90;2.28;;;31.20;97.10;;;;;;5053374;28;20108;-71
2022/08/12 13:40:26;;;;;;;7.70;2.30;;;31.20;96.40;;;;;;5053583;28;20037;-71
2022/08/12 13:42:56;;;;;;;8.05;2.33;;;31.10;96.20;;;;;;5053309;28;20043;-71
2022/08/12 13:45:25;;;;;;;4.03;1.80;;;31.00;95.60;;;;;;5053007;28;20068;-72
2022/08/12 13:47:56;;;;;;;6.75;2.03;;;31.00;93.60;;;;;;5052970;28;20124;-72
2022/08/12 13:50:35;;;;;;;4.18;2.42;;;31.10;92.40;;;;;;5052828;28;20098;-71
2022/08/12 13:53:16;;;;;;;6.10;2.28;;;31.00;91.00;;;;;;5052536;28;20397;-71
2022/08/12 13:55:50;;;;;;;3.65;2.00;;;30.90;90.20;;;;;;5052749;28;20335;-71
2022/08/12 13:58:18;;;;;;;3.42;1.80;;;31.00;90.30;;;;;;5052317;28;20025;-71
2022/08/12 14:00:49;;;;;;;4.45;2.10;;;31.30;89.50;;;;;;5052759;28;20057;-72
2022/08/12 14:03:20;;;;;;;3.92;1.77;;;31.50;89.20;;;;;;5052567;28;20028;-71
2022/08/12 14:05:47;;;;;;;5.93;1.80;;;31.50;87.20;;;;;;5052684;28;20025;-72
2022/08/12 14:08:14;;;;;;;5.90;1.70;;;31.50;87.40;;;;;;5052273;28;20077;-72
2022/08/12 14:10:45;;;;;;;3.30;1.67;;;31.80;87.20;;;;;;5052500;28;20021;-72
2022/08/12 14:13:16;;;;;;;3.38;1.60;;;31.80;85.90;;;;;;5050998;28;20036;-72
2022/08/12 14:15:54;;;;;;;5.15;1.50;;;31.90;86.00;;;;;;5052441;28;20013;-72
2022/08/12 14:18:22;;;;;;;3.00;1.70;;;32.00;85.20;;;;;;5052001;28;20457;-72
2022/08/12 14:20:57;;;;;;;8.23;1.60;;;32.20;84.40;;;;;;5052342;28;20032;-72
2022/08/12 14:23:25;;;;;;;3.45;1.60;;;32.40;84.20;;;;;;5052284;28;20057;-72
2022/08/12 14:25:59;;;;;;;2.63;1.30;;;32.20;83.20;;;;;;5052045;28;20045;-72
2022/08/12 14:28:29;;;;;;;3.53;1.80;;;32.20;83.40;;;;;;5052186;28;20469;-72
2022/08/12 14:31:03;;;;;;;3.63;1.42;;;32.30;82.60;;;;;;5052667;28;20123;-72
2022/08/12 14:33:38;;;;;;;3.47;1.80;;;32.20;81.50;;;;;;5052238;28;20052;-72
2022/08/12 14:36:07;;;;;;;3.50;1.50;;;32.10;84.10;;;;;;5052379;28;20055;-72
2022/08/12 14:38:38;;;;;;;4.63;1.60;;;32.00;82.20;;;;;;5050568;28;20073;-72
2022/08/12 14:41:07;;;;;;;8.18;1.65;;;31.90;82.10;;;;;;5052122;28;20357;-72
2022/08/12 14:43:37;;;;;;;4.82;1.60;;;32.20;81.70;;;;;;5052128;28;20033;-72
2022/08/12 14:46:14;;;;;;;4.10;1.50;;;32.40;81.90;;;;;;5052105;28;20087;-72
2022/08/12 14:48:45;;;;;;;3.25;1.30;;;32.50;81.60;;;;;;5052497;28;20083;-72
2022/08/12 14:51:21;;;;;;;3.08;1.48;;;32.70;81.00;;;;;;5051786;28;20013;-72
2022/08/12 14:53:52;;;;;;;5.05;1.63;;;32.60;81.10;;;;;;5051290;28;20025;-72
2022/08/12 14:56:20;;;;;;;3.97;1.45;;;32.30;80.70;;;;;;5051386;28;20041;-72
2022/08/12 15:01:43;;;;;;;3.87;2.00;;;32.30;81.10;;;;;;5051733;28;20075;-72